Time;durP1;ratioP1;P1;durP2;ratioP2;P2;SDS_P1;SDS_P2;PMS_P1;PMS_P2;Temp;Humidity;BMP_temperature;BMP_pressure;BME280_temperature;BME280_humidity;BME280_pressure;Samples;Min_cycle;Max_cycle;Signal;HPM_P1;HPM_P2
2021/12/13 00:00:14;;;;;;;119.55;32.20;;;8.50;99.90;;;;;;5039263;28;20041;-74
2021/12/13 00:03:01;;;;;;;154.85;38.55;;;8.50;99.90;;;;;;5045853;28;20040;-75
2021/12/13 00:05:34;;;;;;;156.15;38.00;;;8.50;99.90;;;;;;5038106;28;20072;-74
2021/12/13 00:08:07;;;;;;;157.45;40.40;;;8.50;99.90;;;;;;5037949;28;20076;-75
2021/12/13 00:10:48;;;;;;;141.75;37.33;;;8.40;99.90;;;;;;5049072;28;20049;-74
2021/12/13 00:13:23;;;;;;;183.85;39.97;;;8.50;99.90;;;;;;5045461;28;20057;-75
2021/12/13 00:15:58;;;;;;;259.38;51.35;;;8.40;99.90;;;;;;5042167;28;20655;-74
2021/12/13 00:18:30;;;;;;;;;;;8.40;99.90;;;;;;5035097;28;20052;-74
2021/12/13 00:21:07;;;;;;;451.00;70.63;;;8.40;99.90;;;;;;5045623;28;19931;-74
2021/12/13 00:23:54;;;;;;;622.50;75.07;;;8.50;99.90;;;;;;5055095;28;20132;-75
2021/12/13 00:26:43;;;;;;;422.10;65.20;;;8.50;99.90;;;;;;5056268;28;20641;-74
2021/12/13 00:29:13;;;;;;;681.85;89.38;;;8.40;99.90;;;;;;5041072;28;20059;-73
2021/12/13 00:31:48;;;;;;;723.50;92.80;;;8.50;99.90;;;;;;5037618;28;20102;-73
2021/12/13 00:34:38;;;;;;;499.45;70.93;;;8.50;99.90;;;;;;5015893;28;20041;-75
2021/12/13 00:37:14;;;;;;;335.65;56.88;;;8.40;99.90;;;;;;5036379;28;20061;-74
2021/12/13 00:39:51;;;;;;;184.23;43.90;;;8.50;99.90;;;;;;5037575;28;20218;-74
2021/12/13 00:42:21;;;;;;;168.65;40.53;;;8.40;99.90;;;;;;5038215;28;20053;-75
2021/12/13 00:44:52;;;;;;;128.73;34.88;;;8.40;99.90;;;;;;5038643;28;20049;-71
2021/12/13 00:47:25;;;;;;;145.80;35.97;;;8.40;99.90;;;;;;5053991;28;20056;-71
2021/12/13 00:50:03;;;;;;;147.90;37.55;;;8.50;99.90;;;;;;5051632;28;20053;-72
2021/12/13 00:52:33;;;;;;;155.90;38.10;;;8.50;99.90;;;;;;5039317;28;20045;-72
2021/12/13 00:55:00;;;;;;;234.15;43.60;;;8.50;99.90;;;;;;5058522;28;20113;-69
2021/12/13 00:57:29;;;;;;;321.90;54.83;;;8.50;99.90;;;;;;5038152;28;20094;-71
2021/12/13 01:00:07;;;;;;;414.63;61.85;;;8.50;99.90;;;;;;5039821;28;20562;-70
2021/12/13 01:02:43;;;;;;;389.80;56.40;;;8.50;99.90;;;;;;5034196;28;20049;-71
2021/12/13 01:05:18;;;;;;;239.23;44.25;;;8.40;99.90;;;;;;5038818;28;20088;-72
2021/12/13 01:08:13;;;;;;;613.83;81.13;;;8.40;99.90;;;;;;5057574;28;20052;-72
2021/12/13 01:10:55;;;;;;;481.27;67.23;;;8.40;99.90;;;;;;5036002;28;20512;-73
2021/12/13 01:13:27;;;;;;;643.90;74.90;;;8.40;99.90;;;;;;5020097;28;20044;-71
2021/12/13 01:21:41;;;;;;;803.20;99.38;;;8.40;99.90;;;;;;5036053;28;20049;-72
2021/12/13 01:24:14;;;;;;;731.63;88.57;;;8.50;99.90;;;;;;5046127;28;20044;-71
2021/12/13 01:26:48;;;;;;;353.63;54.65;;;8.50;99.90;;;;;;5038350;28;20037;-71
2021/12/13 01:29:20;;;;;;;262.88;51.92;;;8.50;99.90;;;;;;5039250;28;20080;-71
2021/12/13 01:31:55;;;;;;;330.35;58.47;;;8.50;99.90;;;;;;5039829;28;20049;-72
2021/12/13 01:34:24;;;;;;;232.68;49.13;;;8.50;99.90;;;;;;5024506;28;20045;-71
2021/12/13 01:37:04;;;;;;;265.92;49.78;;;8.50;99.90;;;;;;5041856;28;20045;-71
2021/12/13 01:39:33;;;;;;;244.45;46.38;;;8.60;99.90;;;;;;5028409;28;20048;-72
2021/12/13 01:42:04;;;;;;;191.05;41.05;;;8.60;99.90;;;;;;5020063;28;20067;-71
2021/12/13 01:44:41;;;;;;;236.00;45.92;;;8.60;99.90;;;;;;5036205;28;20075;-70
2021/12/13 01:47:12;;;;;;;213.90;46.20;;;8.50;99.90;;;;;;5053512;28;20052;-72
2021/12/13 01:49:46;;;;;;;220.20;46.95;;;8.50;99.90;;;;;;5055097;28;20049;-70
2021/12/13 01:52:34;;;;;;;232.30;50.22;;;8.60;99.90;;;;;;5019225;28;20570;-71
2021/12/13 01:55:10;;;;;;;359.38;59.55;;;8.60;99.90;;;;;;5040494;28;20475;-71
2021/12/13 01:57:41;;;;;;;283.45;54.38;;;8.60;99.90;;;;;;5038000;28;20059;-71
2021/12/13 02:00:18;;;;;;;215.60;47.92;;;8.60;99.90;;;;;;5057037;28;20056;-71
2021/12/13 02:02:53;;;;;;;259.40;52.92;;;8.60;99.90;;;;;;5028352;28;20546;-71
2021/12/13 02:05:30;;;;;;;265.13;55.28;;;8.60;99.90;;;;;;5016420;28;20053;-70
2021/12/13 02:08:07;;;;;;;286.50;56.95;;;8.60;99.90;;;;;;5039791;28;20099;-71
2021/12/13 02:10:41;;;;;;;269.42;55.90;;;8.60;99.90;;;;;;5035158;28;20055;-71
2021/12/13 02:13:23;;;;;;;305.48;59.13;;;8.60;99.90;;;;;;5050160;28;20057;-71
2021/12/13 02:18:49;;;;;;;266.25;55.85;;;8.60;99.90;;;;;;5052564;28;20078;-72
2021/12/13 02:21:27;;;;;;;293.85;57.17;;;8.60;99.90;;;;;;5039764;28;20034;-72
2021/12/13 02:24:01;;;;;;;325.75;59.58;;;8.60;99.90;;;;;;5021035;28;20110;-69
2021/12/13 02:26:29;;;;;;;231.45;53.22;;;8.60;99.90;;;;;;5055170;28;20075;-72
2021/12/13 02:29:04;;;;;;;220.82;49.40;;;8.60;99.90;;;;;;5022854;28;20052;-70
2021/12/13 02:31:35;;;;;;;237.05;49.88;;;8.60;99.90;;;;;;5055135;28;20044;-71
2021/12/13 02:34:08;;;;;;;176.80;42.85;;;8.60;99.90;;;;;;5055539;28;20048;-70
2021/12/13 02:36:39;;;;;;;191.45;45.78;;;8.60;99.90;;;;;;5056135;28;20544;-70
2021/12/13 02:39:13;;;;;;;189.27;45.25;;;8.60;99.90;;;;;;5037589;28;20347;-72
2021/12/13 02:41:41;;;;;;;167.77;43.13;;;8.60;99.90;;;;;;5056452;28;20044;-71
2021/12/13 02:44:13;;;;;;;195.15;48.40;;;8.60;99.90;;;;;;5042149;28;20428;-69
2021/12/13 02:46:40;;;;;;;147.30;42.65;;;8.60;99.90;;;;;;5036826;28;20247;-71
2021/12/13 02:49:12;;;;;;;185.05;44.47;;;8.60;99.90;;;;;;5046403;28;20404;-71
2021/12/13 02:51:46;;;;;;;270.00;53.45;;;8.60;99.90;;;;;;5018844;28;20049;-70
2021/12/13 02:54:19;;;;;;;266.15;55.25;;;8.60;99.90;;;;;;5040454;28;20051;-70
2021/12/13 02:56:56;;;;;;;319.25;61.70;;;8.60;99.90;;;;;;5016093;28;20060;-69
2021/12/13 02:59:26;;;;;;;332.90;60.30;;;8.60;99.90;;;;;;5032771;28;20060;-71
2021/12/13 03:01:58;;;;;;;228.73;51.97;;;8.60;99.90;;;;;;5003543;28;20053;-72
2021/12/13 03:04:27;;;;;;;382.42;66.88;;;8.60;99.90;;;;;;5049317;23;20102;-73
2021/12/13 03:07:06;;;;;;;287.83;55.17;;;8.60;99.90;;;;;;5022947;28;20099;-73
2021/12/13 03:09:37;;;;;;;247.60;51.40;;;8.70;99.90;;;;;;5038139;28;20075;-74
2021/12/13 03:12:13;;;;;;;203.63;46.92;;;8.70;99.90;;;;;;5014098;28;20041;-74
2021/12/13 03:14:45;;;;;;;174.07;43.05;;;8.70;99.90;;;;;;5031943;28;20048;-73
2021/12/13 03:17:32;;;;;;;154.40;40.95;;;8.70;99.90;;;;;;5058669;28;20148;-74
2021/12/13 03:20:20;;;;;;;251.30;49.38;;;8.70;99.90;;;;;;5056906;28;20514;-75
2021/12/13 03:23:15;;;;;;;121.00;35.30;;;8.60;99.90;;;;;;5059961;28;20328;-74
2021/12/13 03:25:59;;;;;;;155.02;40.03;;;8.70;99.90;;;;;;5065571;28;20437;-74
2021/12/13 03:28:54;;;;;;;151.60;35.40;;;8.60;99.90;;;;;;5061357;28;20129;-75
2021/12/13 03:31:26;;;;;;;134.63;34.15;;;8.60;99.90;;;;;;5061590;28;20322;-74
2021/12/13 03:34:02;;;;;;;119.47;31.75;;;8.60;99.90;;;;;;5043016;28;20086;-73
2021/12/13 03:36:46;;;;;;;181.60;41.03;;;8.60;99.90;;;;;;5061543;28;20522;-74
2021/12/13 03:39:19;;;;;;;169.90;37.78;;;8.60;99.90;;;;;;5039522;28;20110;-74
2021/12/13 03:41:48;;;;;;;185.65;40.63;;;8.70;99.90;;;;;;5046099;28;20045;-73
2021/12/13 03:44:20;;;;;;;154.20;36.08;;;8.60;99.90;;;;;;5060875;28;20551;-73
2021/12/13 03:46:52;;;;;;;161.93;37.00;;;8.60;99.90;;;;;;5044184;28;20304;-73
2021/12/13 03:49:21;;;;;;;166.05;37.80;;;8.60;99.90;;;;;;5043026;28;20485;-74
2021/12/13 03:51:48;;;;;;;136.77;34.90;;;8.60;99.90;;;;;;5060680;28;20525;-74
2021/12/13 03:54:17;;;;;;;118.35;33.42;;;8.60;99.90;;;;;;5065318;28;20135;-74
2021/12/13 03:56:49;;;;;;;83.47;25.25;;;8.60;99.90;;;;;;5067839;28;20139;-74
2021/12/13 03:59:23;;;;;;;103.93;28.98;;;8.60;99.90;;;;;;5041899;28;20067;-74
2021/12/13 04:01:58;;;;;;;101.53;26.10;;;8.60;99.90;;;;;;5043547;28;20154;-74
2021/12/13 04:04:28;;;;;;;90.38;26.02;;;8.60;99.90;;;;;;5042024;28;20200;-75
2021/12/13 04:06:59;;;;;;;77.10;24.60;;;8.50;99.90;;;;;;5023202;28;20045;-75
2021/12/13 04:09:28;;;;;;;97.95;27.45;;;8.50;99.90;;;;;;5044083;28;20109;-75
2021/12/13 04:11:59;;;;;;;152.02;33.85;;;8.50;99.90;;;;;;5043153;28;20036;-75
2021/12/13 04:14:40;;;;;;;273.08;49.17;;;8.50;99.90;;;;;;5039363;28;20088;-74
2021/12/13 04:17:35;;;;;;;454.98;65.88;;;8.50;99.90;;;;;;5007224;28;20612;-74
2021/12/13 04:20:08;;;;;;;512.00;71.22;;;8.50;99.90;;;;;;5010166;28;20071;-72
2021/12/13 04:22:39;;;;;;;717.03;85.03;;;8.50;99.90;;;;;;5042732;28;20044;-74
2021/12/13 04:25:11;;;;;;;696.25;90.78;;;8.50;99.90;;;;;;5051778;28;20520;-74
2021/12/13 04:28:03;;;;;;;605.15;79.68;;;8.50;99.90;;;;;;5060104;28;20085;-73
2021/12/13 04:30:39;;;;;;;713.83;94.13;;;8.50;99.90;;;;;;5080204;28;20040;-76
2021/12/13 04:33:13;;;;;;;586.45;85.10;;;8.50;99.90;;;;;;5081306;28;20511;-74
2021/12/13 04:35:41;;;;;;;495.80;72.30;;;8.50;99.90;;;;;;5061333;28;20068;-73
2021/12/13 04:38:08;;;;;;;428.67;68.45;;;8.50;99.90;;;;;;5054719;28;20732;-73
2021/12/13 04:40:38;;;;;;;386.13;67.03;;;8.60;99.90;;;;;;5080997;28;20059;-74
2021/12/13 04:43:07;;;;;;;494.55;76.25;;;8.60;99.90;;;;;;5053996;28;20078;-74
2021/12/13 04:45:35;;;;;;;357.45;67.78;;;8.50;99.90;;;;;;5042140;28;20072;-76
2021/12/13 04:48:10;;;;;;;382.98;67.18;;;8.50;99.90;;;;;;5047140;28;20052;-74
2021/12/13 04:50:52;;;;;;;279.00;54.80;;;8.50;99.90;;;;;;5064740;28;20052;-76
2021/12/13 04:53:29;;;;;;;204.00;47.25;;;8.50;99.90;;;;;;5064187;28;20136;-73
2021/12/13 04:55:59;;;;;;;211.52;47.92;;;8.50;99.90;;;;;;5055131;28;20579;-75
2021/12/13 04:58:29;;;;;;;187.93;43.38;;;8.50;99.90;;;;;;5052864;28;20568;-74
2021/12/13 05:01:00;;;;;;;174.10;42.03;;;8.50;99.90;;;;;;5044245;28;20128;-76
2021/12/13 05:03:36;;;;;;;154.02;39.63;;;8.50;99.90;;;;;;5031587;28;20524;-72
2021/12/13 05:06:14;;;;;;;143.98;38.35;;;8.50;99.90;;;;;;5032355;28;20060;-73
2021/12/13 05:08:44;;;;;;;170.30;39.75;;;8.50;99.90;;;;;;5065641;28;20048;-74
2021/12/13 05:11:12;;;;;;;123.65;32.30;;;8.50;99.90;;;;;;5064406;28;20165;-74
2021/12/13 05:13:46;;;;;;;123.32;31.77;;;8.50;99.90;;;;;;5046440;28;20140;-73
2021/12/13 05:16:25;;;;;;;124.78;32.42;;;8.50;99.90;;;;;;5043785;28;20036;-73
2021/12/13 05:18:54;;;;;;;137.43;33.17;;;8.50;99.90;;;;;;5047799;28;20045;-75
2021/12/13 05:21:37;;;;;;;158.13;37.83;;;8.50;99.90;;;;;;5063289;28;20045;-73
2021/12/13 05:24:15;;;;;;;187.73;42.22;;;8.50;99.90;;;;;;5063348;28;20037;-74
2021/12/13 05:26:50;;;;;;;272.38;51.45;;;8.50;99.90;;;;;;5075431;28;20774;-74
2021/12/13 05:29:42;;;;;;;286.98;56.17;;;8.50;99.90;;;;;;5084262;28;20052;-73
2021/12/13 05:32:25;;;;;;;240.13;53.78;;;8.50;99.90;;;;;;5059012;28;20138;-74
2021/12/13 05:35:01;;;;;;;295.85;56.78;;;8.50;99.90;;;;;;5084148;28;20044;-74
2021/12/13 05:37:40;;;;;;;467.98;78.05;;;8.50;99.90;;;;;;5070050;28;20075;-74
2021/12/13 05:40:11;;;;;;;275.45;59.63;;;8.50;99.90;;;;;;5065614;28;20257;-74
2021/12/13 05:42:42;;;;;;;338.88;65.53;;;8.50;99.90;;;;;;5052571;28;20076;-74
2021/12/13 05:45:13;;;;;;;280.27;61.10;;;8.50;99.90;;;;;;5063517;28;20087;-74
2021/12/13 05:48:04;;;;;;;290.88;60.90;;;8.40;99.90;;;;;;5063440;28;20140;-74
2021/12/13 05:50:39;;;;;;;379.92;73.57;;;8.50;99.90;;;;;;5045947;28;20048;-74
2021/12/13 05:53:10;;;;;;;333.27;68.85;;;8.50;99.90;;;;;;5040267;28;20179;-73
2021/12/13 05:55:52;;;;;;;381.80;75.93;;;8.50;99.90;;;;;;5053919;28;20064;-73
2021/12/13 05:58:53;;;;;;;478.20;80.80;;;8.40;99.90;;;;;;5046569;28;20072;-74
2021/12/13 06:01:22;;;;;;;281.58;63.78;;;8.50;99.90;;;;;;5075358;28;20090;-74
2021/12/13 06:04:06;;;;;;;300.42;65.07;;;8.50;99.90;;;;;;5071189;28;20061;-74
2021/12/13 06:06:44;;;;;;;284.17;65.72;;;8.40;99.90;;;;;;5051631;28;20068;-74
2021/12/13 06:09:40;;;;;;;249.23;61.60;;;8.40;99.90;;;;;;5050120;28;20109;-74
2021/12/13 06:12:12;;;;;;;356.08;69.28;;;8.50;99.90;;;;;;5031779;28;20099;-74
2021/12/13 06:14:39;;;;;;;315.50;68.35;;;8.50;99.90;;;;;;5043157;28;20300;-73
2021/12/13 06:17:21;;;;;;;390.90;75.30;;;8.50;99.90;;;;;;5024722;28;20469;-74
2021/12/13 06:19:56;;;;;;;245.82;62.08;;;8.50;99.90;;;;;;5025681;28;20053;-74
2021/12/13 06:22:28;;;;;;;284.17;66.03;;;8.50;99.90;;;;;;5032377;28;20083;-74
2021/12/13 06:25:05;;;;;;;236.20;58.40;;;8.40;99.90;;;;;;5001354;28;20067;-75
2021/12/13 06:28:04;;;;;;;285.02;66.95;;;8.50;99.90;;;;;;5061875;28;20114;-74
2021/12/13 06:30:38;;;;;;;289.63;66.38;;;8.40;99.90;;;;;;5043533;28;20166;-73
2021/12/13 06:33:10;;;;;;;282.50;66.00;;;8.40;99.90;;;;;;5064582;28;20083;-75
2021/12/13 06:35:45;;;;;;;308.75;71.10;;;8.40;99.90;;;;;;5060550;28;20032;-74
2021/12/13 06:38:27;;;;;;;357.30;78.80;;;8.40;99.90;;;;;;5062990;28;20132;-74
2021/12/13 06:41:11;;;;;;;332.75;77.70;;;8.40;99.90;;;;;;5042516;28;20144;-73
2021/12/13 06:43:47;;;;;;;400.45;82.18;;;8.40;99.90;;;;;;5039817;28;20068;-74
2021/12/13 06:46:22;;;;;;;327.65;78.07;;;8.40;99.90;;;;;;5061143;28;20087;-73
2021/12/13 06:48:58;;;;;;;287.98;70.20;;;8.50;99.90;;;;;;5057000;28;20338;-74
2021/12/13 06:52:02;;;;;;;309.25;75.03;;;8.40;99.90;;;;;;5045015;28;20083;-74
2021/12/13 06:54:57;;;;;;;304.05;70.85;;;8.40;99.90;;;;;;5044830;28;20125;-74
2021/12/13 06:57:30;;;;;;;256.95;69.50;;;8.40;99.90;;;;;;5059956;28;20044;-74
2021/12/13 07:00:14;;;;;;;274.80;71.13;;;8.30;99.90;;;;;;5043855;28;20048;-73
2021/12/13 07:02:53;;;;;;;254.65;69.72;;;8.30;99.90;;;;;;5063618;28;20618;-74
2021/12/13 07:05:34;;;;;;;251.40;66.07;;;8.30;99.90;;;;;;5060953;28;20048;-76
2021/12/13 07:08:10;;;;;;;245.85;65.07;;;8.20;99.90;;;;;;5031010;28;20056;-73
2021/12/13 07:10:37;;;;;;;261.63;69.38;;;8.30;99.90;;;;;;5042560;28;20083;-76
2021/12/13 07:13:20;;;;;;;252.93;64.63;;;8.30;99.90;;;;;;5027012;28;20588;-76
2021/12/13 07:16:00;;;;;;;262.13;69.97;;;8.30;99.90;;;;;;5040524;28;20041;-75
2021/12/13 07:18:38;;;;;;;228.98;65.40;;;8.30;99.90;;;;;;5044317;28;20398;-75
2021/12/13 07:21:36;;;;;;;288.63;72.20;;;8.30;99.90;;;;;;5032636;28;20134;-75
2021/12/13 07:24:14;;;;;;;273.23;72.13;;;8.40;99.90;;;;;;5033302;28;20076;-76
2021/12/13 07:26:53;;;;;;;267.80;70.72;;;8.30;99.90;;;;;;5034633;28;20490;-75
2021/12/13 07:29:30;;;;;;;251.90;65.88;;;8.40;99.90;;;;;;5042325;28;20139;-75
2021/12/13 07:32:28;;;;;;;240.02;62.70;;;8.30;99.90;;;;;;5025019;28;20045;-74
2021/12/13 07:35:00;;;;;;;233.70;61.40;;;8.30;99.90;;;;;;5038458;28;20049;-76
2021/12/13 07:37:54;;;;;;;221.90;61.10;;;8.30;99.90;;;;;;5047782;28;20642;-75
2021/12/13 07:40:23;;;;;;;236.18;67.68;;;8.30;99.90;;;;;;5024801;28;20046;-76
2021/12/13 07:43:14;;;;;;;261.98;68.53;;;8.40;99.90;;;;;;5030049;28;20095;-75
2021/12/13 07:46:06;;;;;;;249.10;65.88;;;8.40;99.90;;;;;;5024238;28;20136;-75
2021/12/13 07:48:34;;;;;;;245.48;67.65;;;8.40;99.90;;;;;;5042544;28;20119;-75
2021/12/13 07:51:11;;;;;;;232.85;65.15;;;8.40;99.90;;;;;;5042396;28;20065;-76
2021/12/13 07:53:58;;;;;;;274.73;69.60;;;8.40;99.90;;;;;;5039887;28;20049;-75
2021/12/13 07:56:28;;;;;;;244.80;66.18;;;8.40;99.90;;;;;;5032462;28;20044;-75
2021/12/13 07:59:08;;;;;;;204.20;58.80;;;8.50;99.90;;;;;;5061387;28;20139;-75
2021/12/13 08:01:43;;;;;;;203.20;58.75;;;8.50;99.90;;;;;;5026791;28;20471;-76
2021/12/13 08:04:22;;;;;;;189.40;57.58;;;8.50;99.90;;;;;;5062862;28;20052;-75
2021/12/13 08:06:53;;;;;;;188.55;56.65;;;8.50;99.90;;;;;;5044353;28;20052;-75
2021/12/13 08:09:25;;;;;;;196.43;56.40;;;8.40;99.90;;;;;;5062319;28;20056;-73
2021/12/13 08:11:58;;;;;;;197.73;56.65;;;8.50;99.90;;;;;;5023429;28;20095;-75
2021/12/13 08:14:36;;;;;;;184.40;54.85;;;8.50;99.90;;;;;;5056368;28;20117;-76
2021/12/13 08:17:15;;;;;;;169.25;54.17;;;8.40;99.90;;;;;;5037969;28;20067;-75
2021/12/13 08:19:44;;;;;;;172.65;49.33;;;8.50;99.90;;;;;;5046370;28;20565;-75
2021/12/13 08:22:18;;;;;;;175.02;50.72;;;8.50;99.90;;;;;;5030051;28;20095;-74
2021/12/13 08:24:56;;;;;;;158.13;46.20;;;8.50;99.90;;;;;;5024721;28;20102;-75
2021/12/13 08:27:31;;;;;;;163.02;48.28;;;8.50;99.90;;;;;;5040673;28;20141;-74
2021/12/13 08:30:21;;;;;;;141.68;44.53;;;8.50;99.90;;;;;;5047730;28;20137;-75
2021/12/13 08:33:03;;;;;;;170.65;51.05;;;8.50;99.90;;;;;;5031405;28;20124;-75
2021/12/13 08:35:48;;;;;;;155.90;46.88;;;8.50;99.90;;;;;;5028576;28;20067;-76
2021/12/13 08:38:35;;;;;;;148.07;43.90;;;8.50;99.90;;;;;;5039421;28;20388;-76
2021/12/13 08:41:15;;;;;;;136.52;43.00;;;8.60;99.90;;;;;;5065456;28;20051;-75
2021/12/13 08:43:51;;;;;;;168.55;46.80;;;8.60;99.90;;;;;;5039127;28;20079;-75
2021/12/13 08:46:56;;;;;;;140.13;43.33;;;8.60;99.90;;;;;;5033909;28;20044;-75
2021/12/13 08:49:25;;;;;;;125.55;42.28;;;8.60;99.90;;;;;;5039894;28;20048;-75
2021/12/13 08:51:56;;;;;;;122.72;37.30;;;8.60;99.90;;;;;;5045890;28;20497;-73
2021/12/13 08:54:40;;;;;;;126.88;38.58;;;8.60;99.90;;;;;;5019168;28;20048;-73
2021/12/13 08:57:26;;;;;;;110.50;35.70;;;8.60;99.90;;;;;;5059814;28;20403;-75
2021/12/13 08:59:54;;;;;;;105.20;35.13;;;8.70;99.90;;;;;;5085638;28;20812;-75
2021/12/13 09:02:25;;;;;;;103.05;33.40;;;8.70;99.90;;;;;;5085995;28;20426;-75
2021/12/13 09:05:10;;;;;;;93.90;33.22;;;8.60;99.90;;;;;;5079304;22;20053;-76
2021/12/13 09:07:51;;;;;;;86.18;32.30;;;8.70;99.90;;;;;;5028744;28;20076;-75
2021/12/13 09:10:20;;;;;;;93.10;32.65;;;8.60;99.90;;;;;;5027775;28;20055;-75
2021/12/13 09:12:47;;;;;;;76.60;30.05;;;8.70;99.90;;;;;;5032844;28;20106;-75
2021/12/13 09:15:22;;;;;;;75.40;29.17;;;8.70;99.90;;;;;;5051440;28;20373;-75
2021/12/13 09:17:50;;;;;;;66.90;26.27;;;8.70;99.90;;;;;;5043832;28;20122;-76
2021/12/13 09:20:37;;;;;;;65.60;25.50;;;8.60;99.90;;;;;;5044438;28;20076;-75
2021/12/13 09:23:22;;;;;;;55.10;23.23;;;8.70;99.90;;;;;;5008463;28;20633;-76
2021/12/13 09:25:54;;;;;;;50.03;21.60;;;8.70;99.90;;;;;;5014475;28;20111;-76
2021/12/13 09:28:35;;;;;;;43.72;19.98;;;8.70;99.90;;;;;;5026380;28;20056;-75
2021/12/13 09:31:18;;;;;;;57.28;25.20;;;8.70;99.90;;;;;;5025993;28;20100;-75
2021/12/13 09:33:49;;;;;;;51.60;24.60;;;8.70;99.90;;;;;;5026900;28;20045;-74
2021/12/13 09:36:23;;;;;;;50.65;25.00;;;8.80;99.90;;;;;;5044598;28;20128;-75
2021/12/13 09:38:53;;;;;;;58.78;26.38;;;8.80;99.90;;;;;;5025933;28;20553;-75
2021/12/13 09:41:35;;;;;;;46.17;24.13;;;8.80;99.90;;;;;;5013026;28;20051;-75
2021/12/13 09:44:08;;;;;;;49.75;25.38;;;8.80;99.90;;;;;;5014477;28;20578;-75
2021/12/13 09:46:43;;;;;;;54.83;26.05;;;8.80;99.90;;;;;;5039609;28;20128;-75
2021/12/13 09:49:42;;;;;;;49.97;22.85;;;8.80;99.90;;;;;;5025699;28;20159;-74
2021/12/13 09:52:11;;;;;;;41.60;20.27;;;8.80;99.90;;;;;;5043692;28;20045;-74
2021/12/13 09:54:55;;;;;;;37.78;19.00;;;8.80;99.90;;;;;;5041871;28;20144;-74
2021/12/13 09:57:39;;;;;;;38.90;19.88;;;8.80;99.90;;;;;;5035194;28;20382;-74
2021/12/13 10:00:15;;;;;;;37.53;19.90;;;8.90;99.90;;;;;;5043217;28;20143;-74
2021/12/13 10:02:48;;;;;;;35.00;19.08;;;8.80;99.90;;;;;;5024440;28;20140;-74
2021/12/13 10:05:20;;;;;;;35.45;19.25;;;8.80;99.90;;;;;;5024916;28;20100;-74
2021/12/13 10:07:52;;;;;;;38.42;18.42;;;8.90;99.90;;;;;;5005865;28;20475;-75
2021/12/13 10:10:25;;;;;;;32.65;18.20;;;8.90;99.90;;;;;;5005873;28;20151;-74
2021/12/13 10:12:59;;;;;;;40.60;22.30;;;8.90;99.90;;;;;;5012889;28;20048;-75
2021/12/13 10:15:33;;;;;;;44.45;25.13;;;8.90;99.90;;;;;;5024809;28;20126;-75
2021/12/13 10:18:04;;;;;;;44.15;27.48;;;8.90;99.90;;;;;;5062271;28;20053;-75
2021/12/13 10:20:41;;;;;;;45.30;26.30;;;8.90;99.90;;;;;;5062633;28;20044;-75
2021/12/13 10:23:13;;;;;;;33.90;20.05;;;8.90;99.90;;;;;;5039882;28;20060;-74
2021/12/13 10:25:46;;;;;;;31.90;19.52;;;8.90;99.90;;;;;;5022967;28;20148;-74
2021/12/13 10:28:17;;;;;;;33.72;19.25;;;8.90;99.90;;;;;;5008037;28;20057;-75
2021/12/13 10:30:52;;;;;;;39.20;22.05;;;8.90;99.90;;;;;;5029623;28;20106;-75
2021/12/13 10:33:20;;;;;;;;;;;8.90;99.90;;;;;;5044094;28;20439;-74
2021/12/13 10:35:49;;;;;;;34.85;20.38;;;8.80;99.90;;;;;;5018707;28;19964;-75
2021/12/13 10:38:22;;;;;;;32.78;17.33;;;8.90;99.90;;;;;;5004698;28;20136;-74
2021/12/13 10:41:00;;;;;;;28.30;17.90;;;8.90;99.90;;;;;;5027855;28;20123;-74
2021/12/13 10:43:34;;;;;;;34.25;19.95;;;8.90;99.90;;;;;;5049441;28;20503;-75
2021/12/13 10:46:10;;;;;;;40.58;21.80;;;9.00;99.90;;;;;;5020865;28;20487;-75
2021/12/13 10:48:44;;;;;;;32.35;16.63;;;9.00;99.90;;;;;;5028379;28;20536;-75
2021/12/13 10:51:14;;;;;;;36.75;20.85;;;8.90;99.90;;;;;;5024339;28;20124;-75
2021/12/13 10:53:42;;;;;;;37.25;23.38;;;8.90;99.90;;;;;;5024126;28;20040;-74
2021/12/13 10:56:19;;;;;;;34.45;21.48;;;9.00;99.90;;;;;;5051262;28;20498;-74
2021/12/13 10:58:49;;;;;;;35.30;21.23;;;9.00;99.90;;;;;;5046660;28;20372;-74
2021/12/13 11:01:23;;;;;;;30.30;19.73;;;8.90;99.90;;;;;;5042540;28;20048;-75
2021/12/13 11:03:53;;;;;;;35.90;19.92;;;8.90;99.90;;;;;;5025285;28;20076;-75
2021/12/13 11:06:21;;;;;;;29.35;18.35;;;8.80;99.90;;;;;;5042660;28;20604;-75
2021/12/13 11:08:50;;;;;;;29.77;18.08;;;8.80;99.90;;;;;;5036956;28;20527;-75
2021/12/13 11:11:19;;;;;;;28.45;18.08;;;8.80;99.90;;;;;;5005556;28;20050;-75
2021/12/13 11:13:50;;;;;;;26.52;17.00;;;8.90;99.90;;;;;;5008157;28;20068;-74
2021/12/13 11:16:43;;;;;;;26.63;16.45;;;8.90;99.90;;;;;;5022399;28;20555;-75
2021/12/13 11:19:33;;;;;;;24.73;15.90;;;8.90;99.90;;;;;;5033207;28;20041;-75
2021/12/13 11:22:29;;;;;;;26.45;15.73;;;8.90;99.90;;;;;;5022419;28;20075;-75
2021/12/13 11:24:58;;;;;;;;;;;8.80;99.90;;;;;;5043433;28;20429;-75
2021/12/13 11:27:31;;;;;;;25.33;15.35;;;8.80;99.90;;;;;;5043288;28;19921;-75
2021/12/13 11:30:00;;;;;;;23.77;14.00;;;8.80;99.90;;;;;;5042173;28;20136;-75
2021/12/13 11:32:38;;;;;;;25.42;15.68;;;8.80;99.90;;;;;;5023531;28;20087;-75
2021/12/13 11:35:11;;;;;;;18.40;13.02;;;8.90;99.90;;;;;;5022355;28;20507;-75
2021/12/13 11:38:05;;;;;;;20.20;12.73;;;8.90;99.90;;;;;;5024722;28;20033;-75
2021/12/13 11:40:53;;;;;;;17.67;12.77;;;8.80;99.90;;;;;;5010511;28;20045;-75
2021/12/13 11:43:26;;;;;;;21.60;13.40;;;8.80;99.90;;;;;;5036264;28;20556;-75
2021/12/13 11:46:28;;;;;;;19.23;11.80;;;8.80;99.90;;;;;;5027501;28;20048;-75
2021/12/13 11:49:20;;;;;;;18.52;12.40;;;8.80;99.90;;;;;;5042422;28;20449;-75
2021/12/13 11:51:57;;;;;;;19.85;12.73;;;8.80;99.90;;;;;;5041648;28;20491;-75
2021/12/13 11:54:58;;;;;;;18.80;12.65;;;8.80;99.90;;;;;;5012026;28;20053;-75
2021/12/13 11:58:05;;;;;;;19.33;12.98;;;8.80;99.90;;;;;;5020901;28;20060;-75
2021/12/13 12:01:12;;;;;;;22.25;13.77;;;8.80;99.90;;;;;;5025546;28;20242;-75
2021/12/13 12:04:29;;;;;;;19.67;12.63;;;8.90;99.90;;;;;;5041463;28;20396;-75
2021/12/13 12:07:14;;;;;;;17.80;12.43;;;8.90;99.90;;;;;;5008222;28;20103;-75
2021/12/13 12:10:08;;;;;;;20.17;13.90;;;8.90;99.90;;;;;;5003343;28;20138;-75
2021/12/13 12:12:58;;;;;;;19.30;13.27;;;8.90;99.90;;;;;;5022528;28;20045;-76
2021/12/13 12:15:26;;;;;;;20.80;13.90;;;8.90;99.90;;;;;;5040611;28;20071;-75
2021/12/13 12:17:55;;;;;;;22.50;12.68;;;8.90;99.90;;;;;;5005205;28;20076;-75
2021/12/13 12:20:51;;;;;;;25.42;13.93;;;8.80;99.90;;;;;;5034296;28;20365;-75
2021/12/13 12:23:32;;;;;;;22.23;14.35;;;8.80;99.90;;;;;;5024866;28;20244;-75
2021/12/13 12:26:01;;;;;;;20.10;14.68;;;8.80;99.90;;;;;;5016002;28;20051;-75
2021/12/13 12:28:33;;;;;;;18.13;13.55;;;8.80;99.90;;;;;;5040291;28;20077;-75
2021/12/13 12:31:02;;;;;;;18.67;13.00;;;8.80;99.90;;;;;;5024048;28;20049;-75
2021/12/13 12:33:38;;;;;;;21.70;14.10;;;8.90;99.90;;;;;;5024272;28;20033;-75
2021/12/13 12:36:15;;;;;;;17.02;12.70;;;8.90;99.90;;;;;;5022886;28;20045;-75
2021/12/13 12:39:03;;;;;;;19.08;14.82;;;8.90;99.90;;;;;;5027788;28;20060;-75
2021/12/13 12:41:43;;;;;;;19.98;15.30;;;8.90;99.90;;;;;;5042858;28;20098;-75
2021/12/13 12:44:42;;;;;;;22.27;13.80;;;8.90;99.90;;;;;;5034594;28;20048;-75
2021/12/13 12:47:10;;;;;;;22.48;14.68;;;8.90;99.90;;;;;;5025547;28;20041;-75
2021/12/13 12:49:38;;;;;;;23.35;16.02;;;8.80;99.90;;;;;;5029743;28;20126;-75
2021/12/13 12:52:08;;;;;;;22.20;14.00;;;8.80;99.90;;;;;;5023128;28;20052;-75
2021/12/13 12:54:37;;;;;;;20.65;13.90;;;8.80;99.90;;;;;;5041184;28;20106;-75
2021/12/13 12:57:04;;;;;;;17.48;12.85;;;8.80;99.90;;;;;;5039774;28;20065;-75
2021/12/13 12:59:38;;;;;;;16.60;12.05;;;8.80;99.90;;;;;;5011954;28;20056;-76
2021/12/13 13:02:14;;;;;;;21.63;13.68;;;8.80;99.90;;;;;;5021144;28;20504;-75
2021/12/13 13:04:46;;;;;;;21.58;13.50;;;8.80;99.90;;;;;;5021720;28;20068;-75
2021/12/13 13:07:12;;;;;;;21.13;12.45;;;8.90;99.90;;;;;;5033836;28;20502;-75
2021/12/13 13:10:34;;;;;;;21.00;13.20;;;8.90;99.90;;;;;;5043848;28;20129;-75
2021/12/13 13:13:03;;;;;;;22.42;13.70;;;8.90;99.90;;;;;;5046180;28;20095;-74
2021/12/13 13:15:43;;;;;;;24.70;16.88;;;8.80;99.90;;;;;;5062366;28;20044;-75
2021/12/13 13:18:17;;;;;;;21.98;14.15;;;8.80;99.90;;;;;;5063410;28;20087;-75
2021/12/13 13:20:47;;;;;;;24.58;16.70;;;8.80;99.90;;;;;;5065581;28;20148;-74
2021/12/13 13:23:16;;;;;;;23.15;15.30;;;8.80;99.90;;;;;;5066627;28;20421;-75
2021/12/13 13:25:50;;;;;;;22.02;15.02;;;8.80;99.90;;;;;;5074418;28;20071;-74
2021/12/13 13:28:28;;;;;;;18.97;13.47;;;8.70;99.90;;;;;;5045909;28;20056;-75